Time;durP1;ratioP1;P1;durP2;ratioP2;P2;SDS_P1;SDS_P2;PMS_P1;PMS_P2;Temp;Humidity;BMP_temperature;BMP_pressure;BME280_temperature;BME280_humidity;BME280_pressure;Samples;Min_cycle;Max_cycle;Signal;HPM_P1;HPM_P2
2021/07/01 00:01:50;;;;;;;0.40;0.40;;;;;;;16.53;43.52;92348.84;5062845;28;20501;-94
2021/07/01 00:04:40;;;;;;;0.60;0.40;;;;;;;16.51;43.69;92345.00;5045149;28;20117;-94
2021/07/01 00:07:48;;;;;;;;;;;;;;;;;;;;;
2021/07/01 00:10:39;;;;;;;0.52;0.50;;;;;;;16.57;43.74;92360.31;5088899;28;20154;-92
2021/07/01 00:13:21;;;;;;;1.05;0.55;;;;;;;16.48;44.21;92345.63;5049709;28;20052;-93
2021/07/01 00:16:08;;;;;;;0.40;0.40;;;;;;;16.47;43.82;92344.84;5041425;28;20041;-94
2021/07/01 00:18:52;;;;;;;0.45;0.38;;;;;;;16.52;43.97;92359.72;5008051;28;20057;-93
2021/07/01 00:21:46;;;;;;;2.15;0.63;;;;;;;16.54;44.10;92350.38;5040548;28;20052;-93
2021/07/01 00:24:33;;;;;;;0.40;0.40;;;;;;;16.53;44.16;92356.00;5065503;28;20033;-93
2021/07/01 00:27:28;;;;;;;0.73;0.35;;;;;;;16.51;44.29;92355.56;5044090;28;20088;-93
2021/07/01 00:30:19;;;;;;;;;;;;;;;;;;;;;
2021/07/01 00:33:02;;;;;;;3.10;0.35;;;;;;;16.49;44.23;92358.53;5077606;28;20566;-93
2021/07/01 00:35:36;;;;;;;0.85;0.50;;;;;;;16.43;44.38;92350.00;5024342;28;20057;-92
2021/07/01 00:38:18;;;;;;;0.63;0.57;;;;;;;16.37;44.16;92335.47;5007735;28;20502;-92
2021/07/01 00:41:05;;;;;;;1.17;0.50;;;;;;;16.34;44.02;92340.63;5028616;28;20049;-93
2021/07/01 00:43:54;;;;;;;0.45;0.40;;;;;;;16.34;44.42;92332.69;5049985;28;20105;-92
2021/07/01 00:46:42;;;;;;;0.55;0.50;;;;;;;16.44;44.29;92356.84;5081330;28;20078;-93
2021/07/01 00:49:11;;;;;;;0.43;0.40;;;;;;;16.40;44.36;92350.66;5045101;28;20052;-93
2021/07/01 00:51:57;;;;;;;0.70;0.50;;;;;;;16.33;44.29;92339.84;5045537;28;20127;-93
2021/07/01 00:54:44;;;;;;;1.15;0.52;;;;;;;16.31;44.58;92342.06;5058332;28;20048;-93
2021/07/01 00:57:23;;;;;;;0.30;0.30;;;;;;;16.36;44.03;92333.91;5027171;28;20055;-92
2021/07/01 00:59:53;;;;;;;0.57;0.43;;;;;;;16.30;44.45;92340.53;5023122;28;20072;-91
2021/07/01 01:05:41;;;;;;;1.58;0.70;;;;;;;16.44;44.54;92345.53;5041429;28;20128;-93
2021/07/01 01:08:21;;;;;;;0.60;0.55;;;;;;;16.37;44.58;92343.41;5040116;28;20049;-92
2021/07/01 01:14:13;;;;;;;0.43;0.32;;;;;;;16.50;44.46;92354.00;5043612;28;20061;-92
2021/07/01 01:16:53;;;;;;;2.00;0.50;;;;;;;16.39;44.47;92354.41;5043016;28;20043;-93
2021/07/01 01:19:47;;;;;;;0.52;0.40;;;;;;;16.40;44.96;92360.47;5025887;28;20044;-93
2021/07/01 01:22:59;;;;;;;2.85;0.60;;;;;;;16.23;45.08;92351.59;5054351;28;20059;-92
2021/07/01 01:26:08;;;;;;;;;;;;;;;;;;;;;
2021/07/01 01:29:40;;;;;;;0.65;0.47;;;;;;;16.30;44.78;92360.84;5076739;28;20078;-93
2021/07/01 01:32:25;;;;;;;0.57;0.45;;;;;;;16.25;44.71;92343.34;5060734;28;20045;-93
2021/07/01 01:35:03;;;;;;;0.55;0.40;;;;;;;16.19;45.44;92344.66;5030099;28;20046;-92
2021/07/01 01:37:50;;;;;;;0.75;0.47;;;;;;;16.29;45.14;92362.72;5062774;28;20521;-92
2021/07/01 01:40:51;;;;;;;;;;;;;;;;;;;;;
2021/07/01 01:43:51;;;;;;;;;;;;;;;;;;;;;
2021/07/01 01:47:39;;;;;;;;;;;;;;;;;;;;;
2021/07/01 01:50:15;;;;;;;;;;;;;;;;;;;;;
2021/07/01 01:53:19;;;;;;;;;;;;;;;;;;;;;
2021/07/01 01:56:08;;;;;;;;;;;;;;;;;;;;;
2021/07/01 01:59:20;;;;;;;0.35;0.30;;;;;;;16.30;44.81;92345.81;5059993;28;20057;-92
2021/07/01 02:02:30;;;;;;;3.03;0.50;;;;;;;16.24;45.22;92341.81;5061048;28;20090;-94
2021/07/01 02:06:01;;;;;;;0.52;0.43;;;;;;;16.21;45.42;92340.59;5029239;28;20141;-93
2021/07/01 02:08:53;;;;;;;0.90;0.50;;;;;;;16.25;45.44;92348.63;5038740;28;20045;-92
2021/07/01 02:11:32;;;;;;;0.50;0.50;;;;;;;16.25;45.28;92353.91;5026842;28;20063;-93
2021/07/01 02:14:48;;;;;;;0.75;0.40;;;;;;;16.17;45.13;92334.41;5029929;28;20041;-93
2021/07/01 02:17:38;;;;;;;;;;;;;;;;;;;;;
2021/07/01 02:21:05;;;;;;;0.70;0.50;;;;;;;16.32;44.78;92353.38;5056452;28;20561;-94
2021/07/01 02:23:47;;;;;;;1.80;0.43;;;;;;;16.28;44.69;92348.00;5037499;28;20045;-92
2021/07/01 02:26:34;;;;;;;;;;;;;;;;;;;;;
2021/07/01 02:29:14;;;;;;;1.02;0.50;;;;;;;16.27;45.40;92362.28;5042411;28;20056;-92
2021/07/01 02:32:16;;;;;;;0.63;0.40;;;;;;;16.21;45.32;92355.66;5057648;28;20040;-93
2021/07/01 02:35:22;;;;;;;0.50;0.40;;;;;;;16.20;45.01;92356.75;5063205;28;20031;-93
2021/07/01 02:42:19;;;;;;;;;;;;;;;;;;;;;
2021/07/01 02:45:16;;;;;;;0.40;0.40;;;;;;;16.22;45.63;92354.56;5079735;28;20062;-94
2021/07/01 02:48:18;;;;;;;1.00;0.50;;;;;;;16.20;45.59;92352.25;5051055;28;20531;-93
2021/07/01 02:51:08;;;;;;;;;;;;;;;;;;;;;
2021/07/01 02:54:00;;;;;;;0.30;0.30;;;;;;;16.07;45.90;92336.66;5048923;28;20063;-94
2021/07/01 02:56:40;;;;;;;0.35;0.35;;;;;;;16.08;46.18;92351.44;5057888;28;20053;-93
2021/07/01 02:59:29;;;;;;;0.93;0.40;;;;;;;16.09;46.00;92355.59;5041918;28;20044;-92
2021/07/01 03:02:32;;;;;;;0.30;0.30;;;;;;;16.09;46.04;92345.03;5057612;28;20144;-93
2021/07/01 03:05:19;;;;;;;1.13;0.60;;;;;;;15.99;45.77;92336.41;5026763;28;20084;-92
2021/07/01 03:08:10;;;;;;;;;;;;;;;;;;;;;
2021/07/01 03:10:49;;;;;;;0.40;0.40;;;;;;;15.99;46.64;92340.94;5060468;28;20033;-93
2021/07/01 03:14:10;;;;;;;0.60;0.40;;;;;;;15.97;46.74;92351.81;5043987;28;20043;-92
2021/07/01 03:16:46;;;;;;;1.95;0.63;;;;;;;16.01;45.69;92344.03;5026482;28;20084;-91
2021/07/01 03:22:38;;;;;;;0.68;0.57;;;;;;;16.10;45.92;92341.28;5063893;28;20055;-91
2021/07/01 03:25:16;;;;;;;0.23;0.20;;;;;;;16.13;45.93;92352.00;5061580;28;20162;-91
2021/07/01 03:28:00;;;;;;;0.73;0.40;;;;;;;16.11;45.38;92334.94;5043635;28;20101;-91
2021/07/01 03:30:47;;;;;;;;;;;;;;;;;;;;;
2021/07/01 03:33:46;;;;;;;0.30;0.30;;;;;;;16.17;45.50;92349.50;5069074;28;20117;-93
2021/07/01 03:36:34;;;;;;;0.28;0.28;;;;;;;16.34;44.80;92345.91;5050405;28;20072;-92
2021/07/01 03:39:41;;;;;;;;;;;;;;;;;;;;;
2021/07/01 03:43:06;;;;;;;;;;;;;;;;;;;;;
2021/07/01 03:45:46;;;;;;;;;;;;;;;;;;;;;
2021/07/01 03:48:32;;;;;;;1.17;0.68;;;;;;;16.50;44.08;92348.72;5059954;28;20044;-92
2021/07/01 03:51:46;;;;;;;0.35;0.30;;;;;;;16.42;44.20;92329.97;5015027;28;20775;-93
2021/07/01 03:54:49;;;;;;;;;;;;;;;;;;;;;
2021/07/01 03:57:27;;;;;;;1.08;0.50;;;;;;;16.39;46.47;92343.84;5058687;28;20041;-93
2021/07/01 04:00:11;;;;;;;0.30;0.30;;;;;;;16.26;47.70;92323.78;5059994;28;20161;-93
2021/07/01 04:03:11;;;;;;;0.43;0.43;;;;;;;16.26;45.65;92317.69;5062276;28;20060;-93
2021/07/01 04:06:22;;;;;;;0.73;0.40;;;;;;;16.27;45.50;92327.94;5053495;28;20039;-93
2021/07/01 04:09:23;;;;;;;0.40;0.40;;;;;;;16.27;46.25;92330.59;5052481;28;20485;-95
2021/07/01 04:12:27;;;;;;;;;;;;;;;;;;;;;
2021/07/01 04:15:35;;;;;;;;;;;;;;;;;;;;;
2021/07/01 04:18:39;;;;;;;;;;;;;;;;;;;;;
2021/07/01 04:21:41;;;;;;;;;;;;;;;;;;;;;
2021/07/01 04:25:16;;;;;;;;;;;;;;;;;;;;;
2021/07/01 04:28:16;;;;;;;;;;;;;;;;;;;;;
2021/07/01 04:31:04;;;;;;;;;;;;;;;;;;;;;
2021/07/01 04:34:25;;;;;;;3.42;0.47;;;;;;;16.36;44.91;92351.66;5061398;28;20378;-93
2021/07/01 04:40:19;;;;;;;0.73;0.30;;;;;;;16.35;45.89;92345.59;5034639;28;20084;-93
2021/07/01 04:43:13;;;;;;;;;;;;;;;;;;;;;
2021/07/01 04:46:00;;;;;;;1.63;0.52;;;;;;;16.40;46.10;92350.66;5059492;28;20057;-95
2021/07/01 04:49:05;;;;;;;;;;;;;;;;;;;;;
2021/07/01 04:52:20;;;;;;;1.17;0.38;;;;;;;16.45;47.03;92342.53;5060094;28;20439;-92
2021/07/01 04:55:21;;;;;;;0.47;0.40;;;;;;;16.42;47.26;92331.88;5047160;28;20517;-93
2021/07/01 04:58:47;;;;;;;;;;;;;;;;;;;;;
2021/07/01 05:01:55;;;;;;;;;;;;;;;;;;;;;
2021/07/01 05:05:03;;;;;;;3.60;0.30;;;;;;;16.41;49.57;92325.03;5085423;28;20032;-94
2021/07/01 05:08:13;;;;;;;;;;;;;;;;;;;;;
2021/07/01 05:11:32;;;;;;;1.75;0.63;;;;;;;16.41;49.85;92336.38;5059390;28;20123;-94
2021/07/01 05:17:37;;;;;;;1.58;0.47;;;;;;;16.57;47.85;92347.09;5032766;28;20096;-94
2021/07/01 05:20:53;;;;;;;;;;;;;;;;;;;;;
2021/07/01 05:23:41;;;;;;;2.58;0.50;;;;;;;16.68;49.51;92350.09;5037453;28;20048;-95
2021/07/01 05:26:54;;;;;;;0.68;0.47;;;;;;;16.77;48.78;92352.63;5023182;28;20056;-95
2021/07/01 05:30:02;;;;;;;0.77;0.43;;;;;;;16.85;48.00;92355.22;5000321;28;20124;-92
2021/07/01 05:32:59;;;;;;;;;;;;;;;;;;;;;
2021/07/01 05:36:07;;;;;;;0.40;0.40;;;;;;;17.01;48.28;92357.25;5019012;28;20146;-92
2021/07/01 05:38:49;;;;;;;;;;;;;;;;;;;;;
2021/07/01 05:42:05;;;;;;;;;;;;;;;;;;;;;
2021/07/01 05:44:40;;;;;;;0.77;0.52;;;;;;;17.43;49.28;92349.88;5035084;28;20068;-91
2021/07/01 05:47:25;;;;;;;1.58;0.60;;;;;;;17.61;49.81;92353.06;5026858;28;20045;-92
2021/07/01 05:50:27;;;;;;;4.82;0.90;;;;;;;19.04;47.27;92356.25;5020262;28;20054;-94
2021/07/01 06:10:15;;;;;;;;;;;;;;;;;;;;;
2021/07/01 06:34:29;;;;;;;;;;;;;;;;;;;;;
2021/07/01 06:41:44;;;;;;;0.75;0.50;;;;;;;33.93;19.39;92374.09;5057024;28;20063;-94
2021/07/01 06:45:23;;;;;;;;;;;;;;;;;;;;;
2021/07/01 06:52:18;;;;;;;;;;;;;;;;;;;;;
2021/07/01 06:55:25;;;;;;;3.13;1.20;;;;;;;26.81;28.76;92361.28;5042503;28;20047;-93
2021/07/01 07:02:45;;;;;;;3.28;0.95;;;;;;;24.08;37.69;92382.41;5010728;28;20042;-93
2021/07/01 07:06:07;;;;;;;;;;;;;;;;;;;;;
2021/07/01 07:09:09;;;;;;;;;;;;;;;;;;;;;
2021/07/01 07:12:32;;;;;;;;;;;;;;;;;;;;;
2021/07/01 07:15:39;;;;;;;;;;;;;;;;;;;;;
2021/07/01 07:22:42;;;;;;;1.20;0.70;;;;;;;20.98;44.30;92379.00;5050993;28;20135;-93
2021/07/01 07:26:07;;;;;;;2.63;0.60;;;;;;;21.23;42.11;92381.31;5056812;28;20049;-94
2021/07/01 07:29:27;;;;;;;1.65;0.80;;;;;;;21.04;43.00;92374.16;5045791;28;20136;-95
2021/07/01 07:32:51;;;;;;;;;;;;;;;;;;;;;
2021/07/01 07:46:47;;;;;;;1.40;0.68;;;;;;;21.70;39.43;92370.31;4928710;29;20627;-94
2021/07/01 07:50:12;;;;;;;;;;;;;;;;;;;;;
2021/07/01 07:53:28;;;;;;;;;;;;;;;;;;;;;
2021/07/01 08:00:40;;;;;;;;;;;;;;;;;;;;;
2021/07/01 08:04:16;;;;;;;;;;;;;;;;;;;;;
2021/07/01 08:07:13;;;;;;;0.98;0.60;;;;;;;21.66;40.95;92377.50;5034482;28;20443;-95
2021/07/01 08:16:56;;;;;;;;;;;;;;;;;;;;;
2021/07/01 08:23:22;;;;;;;;;;;;;;;;;;;;;
2021/07/01 08:26:41;;;;;;;2.25;0.80;;;;;;;21.75;39.39;92386.00;5033927;28;20018;-94
2021/07/01 08:30:14;;;;;;;;;;;;;;;;;;;;;
2021/07/01 08:32:58;;;;;;;;;;;;;;;;;;;;;
2021/07/01 08:36:20;;;;;;;1.02;0.50;;;;;;;21.80;37.32;92399.00;5056217;28;20041;-94
2021/07/01 08:39:17;;;;;;;1.67;0.60;;;;;;;21.86;36.94;92386.13;5026798;28;20033;-93
2021/07/01 08:42:47;;;;;;;;;;;;;;;;;;;;;
2021/07/01 09:08:09;;;;;;;0.77;0.40;;;;;;;23.10;33.39;92384.66;5039223;28;19920;-95
2021/07/01 09:29:44;;;;;;;1.50;0.50;;;;;;;23.55;32.33;92390.78;5061465;22;20118;-79
2021/07/01 09:32:12;;;;;;;0.50;0.40;;;;;;;23.25;33.17;92397.00;5054369;28;20059;-80
2021/07/01 09:34:40;;;;;;;2.05;0.40;;;;;;;23.59;33.05;92391.59;5054218;28;20571;-79
2021/07/01 09:37:06;;;;;;;0.57;0.40;;;;;;;23.74;32.43;92389.78;5053194;28;20031;-80
2021/07/01 09:39:34;;;;;;;0.40;0.32;;;;;;;23.85;32.57;92396.78;5072888;28;20049;-79
2021/07/01 09:42:02;;;;;;;1.30;0.63;;;;;;;23.86;34.08;92387.59;5052695;28;20040;-81
2021/07/01 09:44:29;;;;;;;1.02;0.70;;;;;;;23.37;35.54;92394.09;5039242;28;20491;-80
2021/07/01 09:47:01;;;;;;;4.32;0.93;;;;;;;23.32;36.11;92391.72;5051740;28;20568;-79
2021/07/01 09:49:35;;;;;;;1.90;0.55;;;;;;;24.19;36.66;92393.94;5054148;28;20044;-80
2021/07/01 09:52:07;;;;;;;1.67;0.80;;;;;;;23.88;37.52;92401.38;5051225;28;20036;-81
2021/07/01 09:54:36;;;;;;;1.35;0.80;;;;;;;24.05;36.94;92399.22;5074134;28;20127;-80
2021/07/01 09:57:07;;;;;;;1.75;0.63;;;;;;;24.16;38.53;92392.03;5026661;28;20033;-78
2021/07/01 09:59:53;;;;;;;1.17;0.80;;;;;;;24.63;37.30;92398.41;5067499;28;20048;-81
2021/07/01 10:02:20;;;;;;;4.20;0.70;;;;;;;25.20;37.06;92399.75;5056068;28;20044;-80
2021/07/01 10:04:47;;;;;;;2.42;0.70;;;;;;;25.25;37.17;92402.06;5056323;28;20071;-82
2021/07/01 10:07:21;;;;;;;3.55;1.70;;;;;;;24.47;37.70;92398.69;5062672;28;20079;-81
2021/07/01 10:09:53;;;;;;;1.67;0.70;;;;;;;24.49;36.45;92392.97;5027474;28;20207;-80
2021/07/01 10:12:25;;;;;;;1.92;0.60;;;;;;;24.47;34.26;92396.00;5054341;28;20102;-81
2021/07/01 10:14:56;;;;;;;2.75;0.70;;;;;;;24.37;34.85;92387.94;5056748;28;20036;-79
2021/07/01 10:17:23;;;;;;;3.58;0.90;;;;;;;24.50;35.92;92384.59;5071501;28;20107;-80
2021/07/01 10:19:50;;;;;;;0.82;0.47;;;;;;;24.79;37.12;92381.25;5039966;28;20045;-82
2021/07/01 10:22:19;;;;;;;1.50;0.50;;;;;;;24.83;36.15;92387.38;5037964;28;20071;-82
2021/07/01 10:24:55;;;;;;;2.63;0.60;;;;;;;24.69;36.93;92388.84;5075100;28;20048;-81
2021/07/01 10:27:41;;;;;;;1.40;0.77;;;;;;;24.42;38.55;92387.56;5050028;28;20056;-81
2021/07/01 10:30:18;;;;;;;1.70;0.90;;;;;;;24.48;37.31;92397.56;5012422;28;20052;-79
2021/07/01 10:32:47;;;;;;;1.67;0.77;;;;;;;24.76;36.85;92398.06;5045116;28;20108;-78
2021/07/01 10:35:42;;;;;;;4.15;0.90;;;;;;;24.44;38.47;92388.72;5034872;28;20040;-79
2021/07/01 10:38:13;;;;;;;0.98;0.60;;;;;;;24.51;37.23;92383.44;5011174;28;20060;-79
2021/07/01 10:40:45;;;;;;;0.70;0.57;;;;;;;24.35;37.41;92390.22;5024380;28;20053;-79
2021/07/01 10:43:13;;;;;;;1.30;0.60;;;;;;;24.49;38.05;92387.63;5042186;28;20055;-79
2021/07/01 10:45:54;;;;;;;2.13;0.60;;;;;;;24.27;34.02;92384.81;5044705;28;20104;-79
2021/07/01 10:48:20;;;;;;;0.95;0.70;;;;;;;24.43;39.36;92386.41;5016612;28;20049;-81
2021/07/01 10:50:48;;;;;;;0.88;0.50;;;;;;;24.56;35.09;92393.00;5030814;28;20037;-82
2021/07/01 10:53:35;;;;;;;1.67;0.65;;;;;;;24.50;35.24;92386.50;5033905;28;20045;-80
2021/07/01 10:56:40;;;;;;;3.30;0.82;;;;;;;25.22;33.69;92384.06;5013863;28;20050;-80
2021/07/01 10:59:06;;;;;;;1.77;0.80;;;;;;;24.59;33.42;92378.88;5010595;28;20037;-80
2021/07/01 11:01:35;;;;;;;1.10;0.60;;;;;;;24.95;35.40;92379.00;5018515;28;20057;-81
2021/07/01 11:04:09;;;;;;;1.40;0.60;;;;;;;24.85;33.76;92375.13;5007095;28;20046;-81
2021/07/01 11:06:35;;;;;;;1.45;0.88;;;;;;;24.81;33.29;92376.28;5020890;28;20061;-81
2021/07/01 11:09:08;;;;;;;1.20;0.60;;;;;;;25.14;31.37;92378.66;5015663;28;20042;-81
2021/07/01 11:11:36;;;;;;;1.50;0.95;;;;;;;25.05;31.85;92380.94;5040408;28;20053;-81
2021/07/01 11:14:14;;;;;;;1.17;0.80;;;;;;;25.11;32.52;92376.00;5018061;28;20043;-83
2021/07/01 11:16:42;;;;;;;0.50;0.50;;;;;;;24.94;31.77;92382.81;5021863;28;20403;-83
2021/07/01 11:19:11;;;;;;;1.38;0.60;;;;;;;25.12;31.66;92375.59;5022013;28;20513;-81
2021/07/01 11:21:44;;;;;;;0.57;0.50;;;;;;;25.44;30.29;92376.81;5052638;28;20033;-82
2021/07/01 11:24:14;;;;;;;0.70;0.50;;;;;;;25.73;32.69;92377.59;5016984;28;20053;-82
2021/07/01 11:26:41;;;;;;;0.98;0.52;;;;;;;25.55;29.53;92383.72;5022777;28;20533;-80
2021/07/01 11:29:10;;;;;;;2.25;0.65;;;;;;;25.21;32.67;92377.19;5038979;28;20052;-80
2021/07/01 11:31:39;;;;;;;5.22;0.80;;;;;;;24.79;35.96;92368.66;5087523;28;20048;-81
2021/07/01 11:34:06;;;;;;;8.00;1.40;;;;;;;24.70;36.15;92377.03;5079574;28;20040;-81
2021/07/01 11:36:34;;;;;;;3.80;0.80;;;;;;;24.60;36.23;92375.06;5062483;28;20494;-81
2021/07/01 11:39:16;;;;;;;2.00;0.90;;;;;;;24.53;35.81;92369.69;5067362;28;20101;-81
2021/07/01 11:41:45;;;;;;;2.28;0.60;;;;;;;24.78;35.27;92369.00;5054112;28;20052;-81
2021/07/01 11:44:12;;;;;;;1.00;0.70;;;;;;;25.07;34.86;92359.16;5059501;28;20036;-78
2021/07/01 11:46:43;;;;;;;5.45;1.63;;;;;;;25.13;34.84;92368.34;5080040;28;20044;-81
2021/07/01 11:49:09;;;;;;;4.20;1.50;;;;;;;25.29;36.69;92370.69;5059351;28;20044;-80
2021/07/01 11:51:36;;;;;;;1.13;0.80;;;;;;;25.47;35.17;92374.16;5079538;28;20402;-79
2021/07/01 11:54:03;;;;;;;1.33;0.77;;;;;;;25.21;36.56;92379.84;5081299;28;20040;-80
2021/07/01 11:56:52;;;;;;;0.45;0.45;;;;;;;25.08;37.20;92377.50;5060651;28;20041;-80
2021/07/01 11:59:16;;;;;;;3.45;0.82;;;;;;;25.11;37.33;92382.09;5080553;28;20100;-80
2021/07/01 12:01:42;;;;;;;3.70;0.60;;;;;;;25.34;34.61;92378.34;5079486;28;20051;-79
2021/07/01 12:04:08;;;;;;;1.02;0.68;;;;;;;25.47;34.13;92374.16;5077730;28;20040;-80
2021/07/01 12:07:11;;;;;;;0.50;0.50;;;;;;;25.17;34.32;92371.00;5071889;28;20080;-80
2021/07/01 12:09:38;;;;;;;;;;;;;;;25.01;34.53;92376.72;5039147;28;20131;-79
2021/07/01 12:12:03;;;;;;;1.48;0.63;;;;;;;24.52;33.63;92376.19;5053046;28;20378;-78
2021/07/01 12:14:36;;;;;;;1.20;0.70;;;;;;;25.38;34.97;92378.34;5077306;28;20344;-80
2021/07/01 12:17:03;;;;;;;2.55;0.98;;;;;;;25.57;33.87;92383.34;5068852;28;20112;-80
2021/07/01 12:19:47;;;;;;;2.15;0.73;;;;;;;25.20;36.06;92378.34;5057696;28;20061;-80
2021/07/01 12:22:48;;;;;;;1.85;0.80;;;;;;;25.89;35.15;92377.97;5054654;28;20040;-79
2021/07/01 12:25:18;;;;;;;2.55;0.80;;;;;;;26.11;32.30;92383.34;5078478;28;20418;-81
2021/07/01 12:27:45;;;;;;;1.98;0.70;;;;;;;25.83;31.48;92384.88;5053070;28;20473;-79
2021/07/01 12:30:11;;;;;;;0.80;0.70;;;;;;;25.51;32.88;92380.28;5076503;28;20040;-82
2021/07/01 12:32:37;;;;;;;4.15;1.30;;;;;;;25.38;34.65;92383.72;5076289;28;20049;-81
2021/07/01 12:35:41;;;;;;;0.75;0.50;;;;;;;25.70;35.18;92378.38;5058475;28;20190;-83
2021/07/01 12:38:12;;;;;;;3.15;0.77;;;;;;;25.07;35.00;92375.22;5025189;28;20146;-80
2021/07/01 12:40:58;;;;;;;2.60;1.10;;;;;;;25.39;34.35;92375.28;5062230;28;20047;-77
2021/07/01 12:43:52;;;;;;;0.82;0.65;;;;;;;26.02;30.73;92377.59;5056662;28;20094;-79
2021/07/01 12:46:45;;;;;;;2.33;0.60;;;;;;;26.20;31.62;92372.22;5070679;28;20044;-78
2021/07/01 12:49:24;;;;;;;1.25;0.68;;;;;;;25.87;30.15;92372.25;5021176;28;20040;-81
2021/07/01 12:51:53;;;;;;;1.00;0.73;;;;;;;25.27;32.86;92365.72;5056370;28;20033;-79
2021/07/01 12:54:25;;;;;;;1.10;0.73;;;;;;;26.05;32.64;92366.09;5054645;28;20043;-79
2021/07/01 12:56:57;;;;;;;2.08;0.93;;;;;;;26.59;33.13;92388.22;5053284;28;20040;-77
2021/07/01 12:59:36;;;;;;;0.80;0.60;;;;;;;26.42;30.10;92386.34;5051944;28;20044;-77
2021/07/01 13:02:05;;;;;;;1.95;0.63;;;;;;;24.99;31.09;92374.41;5046949;28;20048;-77
2021/07/01 13:04:35;;;;;;;0.50;0.40;;;;;;;24.31;30.45;92368.78;5051689;28;20052;-77
2021/07/01 13:07:01;;;;;;;1.95;0.70;;;;;;;24.58;31.23;92371.22;5064220;28;20033;-77
2021/07/01 13:09:31;;;;;;;6.47;0.65;;;;;;;24.97;32.65;92374.06;5033026;28;20417;-77
2021/07/01 13:11:57;;;;;;;2.10;0.70;;;;;;;25.01;28.24;92366.78;5040052;28;20048;-76
2021/07/01 13:14:27;;;;;;;3.38;0.75;;;;;;;25.58;32.05;92376.84;5059768;28;20052;-77
2021/07/01 13:17:11;;;;;;;2.70;0.60;;;;;;;25.80;28.52;92380.25;5066972;28;20395;-77
2021/07/01 13:19:38;;;;;;;0.73;0.55;;;;;;;25.66;27.20;92377.59;5033587;28;20069;-77
2021/07/01 13:22:16;;;;;;;2.70;0.55;;;;;;;24.97;29.83;92376.72;5046085;28;20055;-76
2021/07/01 13:24:58;;;;;;;2.00;0.60;;;;;;;24.97;29.56;92374.06;5069509;28;20032;-77
2021/07/01 13:27:35;;;;;;;;;;;;;;;25.13;29.92;92373.69;5064690;28;20043;-77
2021/07/01 13:30:27;;;;;;;1.17;0.60;;;;;;;25.10;28.39;92379.78;5050097;28;19916;-76
2021/07/01 13:33:07;;;;;;;5.68;0.70;;;;;;;25.62;27.21;92377.59;5019109;28;20048;-76
2021/07/01 13:35:40;;;;;;;2.15;0.60;;;;;;;25.72;28.89;92376.81;5049239;28;20067;-78
2021/07/01 13:38:08;;;;;;;1.98;0.80;;;;;;;24.68;29.22;92376.63;5031207;28;20036;-77
2021/07/01 13:40:35;;;;;;;1.27;0.75;;;;;;;24.93;29.73;92381.31;5032539;28;20045;-77
2021/07/01 13:43:03;;;;;;;0.77;0.68;;;;;;;25.25;32.30;92381.38;5043102;28;20115;-77
2021/07/01 13:45:30;;;;;;;2.00;0.47;;;;;;;25.14;30.66;92383.25;5029051;28;20124;-76
2021/07/01 13:47:59;;;;;;;0.80;0.52;;;;;;;25.07;31.10;92386.69;5033033;28;20036;-77
2021/07/01 13:50:26;;;;;;;1.48;0.70;;;;;;;24.44;30.03;92377.25;5050244;28;20086;-78
2021/07/01 13:52:53;;;;;;;1.50;0.80;;;;;;;24.34;31.66;92369.94;5050645;28;20053;-77
2021/07/01 13:55:27;;;;;;;0.47;0.45;;;;;;;24.24;31.38;92385.56;5032924;28;20098;-78
2021/07/01 13:57:54;;;;;;;0.85;0.52;;;;;;;24.23;36.23;92384.03;5031774;28;20045;-77
2021/07/01 14:00:26;;;;;;;1.08;0.85;;;;;;;24.70;33.51;92384.25;5016036;28;20106;-78
2021/07/01 14:03:00;;;;;;;2.35;0.77;;;;;;;25.34;32.30;92383.69;5017863;28;20131;-78
2021/07/01 14:05:34;;;;;;;2.03;0.70;;;;;;;26.03;32.13;92373.75;5015724;28;20041;-77
2021/07/01 14:08:01;;;;;;;2.70;0.95;;;;;;;26.43;30.58;92372.50;5028615;28;20041;-77
2021/07/01 14:10:29;;;;;;;1.40;0.40;;;;;;;26.62;30.23;92371.34;5048398;28;20407;-78
2021/07/01 14:12:55;;;;;;;1.05;0.60;;;;;;;25.74;30.59;92371.09;4998300;28;20628;-77
2021/07/01 14:15:21;;;;;;;0.70;0.70;;;;;;;25.90;29.87;92370.72;5030873;28;20053;-76
2021/07/01 14:17:47;;;;;;;4.22;0.85;;;;;;;26.48;29.56;92376.72;5050078;28;20469;-77
2021/07/01 14:20:15;;;;;;;1.23;0.70;;;;;;;26.67;28.46;92381.69;5032166;28;20041;-77
2021/07/01 14:22:42;;;;;;;0.90;0.50;;;;;;;26.32;27.22;92369.88;5047972;28;20045;-77
2021/07/01 14:25:14;;;;;;;1.88;0.70;;;;;;;26.70;27.16;92369.38;5031306;28;20040;-77
2021/07/01 14:27:40;;;;;;;1.08;0.70;;;;;;;26.00;28.59;92372.63;5013575;28;20045;-77
2021/07/01 14:30:06;;;;;;;0.77;0.60;;;;;;;26.06;27.51;92373.00;5049190;28;20051;-76
2021/07/01 14:32:39;;;;;;;1.10;0.68;;;;;;;25.76;27.24;92366.13;5027213;28;20094;-77
2021/07/01 14:35:25;;;;;;;1.58;0.70;;;;;;;25.22;30.34;92362.63;5020351;28;20062;-76
2021/07/01 14:38:05;;;;;;;1.85;0.90;;;;;;;24.87;29.69;92370.19;5044793;28;20045;-75
2021/07/01 14:40:31;;;;;;;2.15;0.80;;;;;;;25.25;30.43;92361.88;5049169;28;20044;-76
2021/07/01 14:43:01;;;;;;;2.40;0.65;;;;;;;25.60;32.31;92363.81;5048140;28;20081;-75
2021/07/01 14:45:27;;;;;;;1.05;0.57;;;;;;;25.96;27.08;92375.31;5048989;28;20053;-76
2021/07/01 14:47:53;;;;;;;1.85;0.60;;;;;;;26.13;28.29;92370.31;5048850;28;20037;-76
2021/07/01 14:50:20;;;;;;;1.20;0.70;;;;;;;26.30;28.32;92372.19;5048044;28;20117;-76
2021/07/01 14:52:46;;;;;;;0.98;0.60;;;;;;;26.15;29.47;92376.06;5049065;28;20049;-76
2021/07/01 14:55:20;;;;;;;1.38;0.50;;;;;;;25.66;30.03;92361.50;5042916;28;20045;-77
2021/07/01 14:58:03;;;;;;;2.20;1.00;;;;;;;25.83;27.12;92370.72;5045143;28;20116;-76
2021/07/01 15:00:29;;;;;;;0.50;0.50;;;;;;;25.65;29.94;92363.44;5049065;28;20520;-76
2021/07/01 15:02:58;;;;;;;1.33;0.60;;;;;;;25.86;29.06;92368.00;5048742;28;20052;-76
2021/07/01 15:05:28;;;;;;;3.85;0.70;;;;;;;25.97;28.97;92368.03;5056730;28;20045;-76
2021/07/01 15:08:02;;;;;;;0.90;0.50;;;;;;;25.80;27.46;92366.84;5068492;28;20048;-76
2021/07/01 15:10:37;;;;;;;0.70;0.60;;;;;;;25.67;28.56;92360.34;5069724;28;20052;-76
2021/07/01 15:13:11;;;;;;;1.15;0.70;;;;;;;25.74;29.04;92368.41;5065013;28;20130;-76
2021/07/01 15:15:38;;;;;;;0.70;0.50;;;;;;;25.85;28.33;92363.81;5048593;28;20136;-76
2021/07/01 15:18:05;;;;;;;0.80;0.65;;;;;;;25.76;29.00;92368.78;5049905;28;20113;-77
2021/07/01 15:20:32;;;;;;;1.55;0.68;;;;;;;25.93;28.96;92365.34;5049016;28;20148;-77
2021/07/01 15:22:58;;;;;;;1.35;0.70;;;;;;;25.88;28.37;92363.06;5049859;28;20072;-76
2021/07/01 15:25:25;;;;;;;1.50;0.70;;;;;;;25.83;29.91;92368.78;5045965;28;20044;-76
2021/07/01 15:27:52;;;;;;;1.08;0.60;;;;;;;25.79;28.82;92368.03;5028240;28;20080;-76
2021/07/01 15:30:18;;;;;;;1.13;0.60;;;;;;;25.76;27.79;92371.47;5047385;28;20501;-76
2021/07/01 15:32:46;;;;;;;1.45;0.80;;;;;;;25.80;27.71;92372.22;5034633;28;20046;-76
2021/07/01 15:35:12;;;;;;;0.60;0.57;;;;;;;25.86;28.73;92380.66;5035377;28;20143;-76
2021/07/01 15:37:39;;;;;;;1.15;0.52;;;;;;;25.88;27.09;92368.41;5047093;28;20090;-76
2021/07/01 15:40:07;;;;;;;1.80;0.57;;;;;;;26.20;28.78;92375.66;5042917;28;20045;-75
2021/07/01 15:42:34;;;;;;;1.25;0.80;;;;;;;26.07;26.66;92366.47;5051266;28;20518;-75
2021/07/01 15:44:59;;;;;;;2.65;0.50;;;;;;;26.07;27.53;92371.84;5041403;28;20098;-75
2021/07/01 15:47:25;;;;;;;0.77;0.63;;;;;;;26.14;27.45;92375.28;5055110;28;20474;-75
2021/07/01 15:49:54;;;;;;;2.17;0.70;;;;;;;26.37;27.28;92372.16;5051628;28;20041;-75
2021/07/01 15:52:22;;;;;;;1.55;0.70;;;;;;;26.47;27.38;92375.19;5052470;28;20045;-76
2021/07/01 15:54:49;;;;;;;1.17;1.00;;;;;;;26.54;25.67;92369.81;5056167;28;20037;-79
2021/07/01 15:57:15;;;;;;;3.10;0.80;;;;;;;26.47;27.20;92380.56;5053590;28;20059;-76
2021/07/01 15:59:41;;;;;;;1.50;0.77;;;;;;;26.50;25.97;92375.19;5051841;28;20099;-76
2021/07/01 16:02:07;;;;;;;5.97;0.90;;;;;;;25.97;27.49;92365.34;5051057;28;20498;-76
2021/07/01 16:04:35;;;;;;;1.55;0.70;;;;;;;26.31;25.37;92367.59;5067319;28;20095;-75
2021/07/01 16:07:02;;;;;;;0.95;0.68;;;;;;;26.13;26.16;92368.38;5051790;28;20475;-76
2021/07/01 16:09:28;;;;;;;1.38;0.77;;;;;;;26.06;28.11;92362.28;5052630;28;20514;-75
2021/07/01 16:11:55;;;;;;;1.23;0.70;;;;;;;25.76;26.87;92356.16;5051452;28;20135;-75
2021/07/01 16:14:22;;;;;;;1.27;0.88;;;;;;;26.03;28.76;92357.66;5033868;28;20103;-75
2021/07/01 16:16:49;;;;;;;2.45;0.70;;;;;;;26.34;27.43;92362.22;5067501;28;20057;-76
2021/07/01 16:19:15;;;;;;;0.77;0.63;;;;;;;26.34;26.61;92362.22;5050119;28;20045;-76
2021/07/01 16:21:44;;;;;;;1.35;0.82;;;;;;;26.32;27.34;92361.03;5026469;28;20430;-76
2021/07/01 16:24:12;;;;;;;1.30;0.70;;;;;;;26.51;27.72;92354.50;5050150;28;20733;-76
2021/07/01 16:26:38;;;;;;;2.10;0.70;;;;;;;26.42;25.86;92356.81;5043642;28;20045;-77
2021/07/01 16:29:06;;;;;;;1.05;0.70;;;;;;;26.15;26.47;92355.34;5047752;28;20095;-76